createdAt,value
2019-02-26T04:01:59.155Z,16.57
2019-02-26T04:04:30.465Z,18.70
2019-02-26T04:06:59.068Z,15.90
2019-02-26T04:09:28.917Z,16.53
2019-02-26T04:11:57.589Z,15.73
2019-02-26T04:14:28.207Z,16.97
2019-02-26T04:16:58.666Z,14.37
2019-02-26T04:19:27.301Z,16.30
2019-02-26T04:22:26.995Z,18.77
2019-02-26T04:25:00.951Z,16.93
2019-02-26T04:28:12.921Z,16.63
2019-02-26T04:31:32.129Z,18.37
2019-02-26T04:34:40.502Z,13.97
2019-02-26T04:38:07.722Z,16.67
2019-02-26T04:41:09.335Z,13.57
2019-02-26T04:44:12.561Z,12.77
2019-02-26T04:47:14.042Z,17.60
2019-02-26T04:49:43.120Z,15.43
2019-02-26T04:52:14.398Z,13.13
2019-02-26T04:54:42.221Z,16.87
2019-02-26T04:57:11.132Z,15.57
2019-02-26T04:59:41.058Z,15.40
2019-02-26T05:02:10.114Z,15.40
2019-02-26T05:04:40.050Z,19.13
2019-02-26T05:07:12.775Z,16.70
2019-02-26T05:09:39.532Z,15.60
2019-02-26T05:12:08.494Z,16.63
2019-02-26T05:14:37.150Z,15.83
2019-02-26T05:17:05.783Z,14.30
2019-02-26T05:19:36.365Z,13.87
2019-02-26T05:22:06.917Z,15.13
2019-02-26T05:24:35.394Z,13.40
2019-02-26T05:27:18.121Z,14.13
2019-02-26T05:29:48.731Z,13.60
2019-02-26T05:32:16.280Z,15.53
2019-02-26T05:34:47.357Z,14.27
2019-02-26T05:37:15.250Z,15.67
2019-02-26T05:39:45.875Z,13.93
2019-02-26T05:42:14.237Z,14.53
2019-02-26T05:44:43.306Z,13.20
2019-02-26T05:47:13.187Z,14.33
2019-02-26T05:49:45.351Z,15.93
2019-02-26T05:52:12.655Z,13.20
2019-02-26T05:54:41.301Z,14.67
2019-02-26T05:57:25.462Z,14.37
2019-02-26T05:59:42.026Z,16.10
2019-02-26T06:02:13.217Z,18.83
2019-02-26T06:04:43.865Z,16.90
2019-02-26T06:07:11.494Z,17.30
2019-02-26T06:09:40.143Z,17.33
2019-02-26T06:12:08.819Z,15.57
2019-02-26T06:14:39.370Z,17.20
2019-02-26T06:17:10.683Z,18.23
2019-02-26T06:19:45.106Z,16.67
2019-02-26T06:22:17.053Z,16.40
2019-02-26T06:24:44.535Z,19.97
2019-02-26T06:27:15.878Z,15.97
2019-02-26T06:29:43.671Z,18.63
2019-02-26T06:32:14.098Z,19.00
2019-02-26T06:34:42.746Z,19.03
2019-02-26T06:37:19.147Z,19.20
2019-02-26T06:39:50.594Z,19.77
2019-02-26T06:42:18.450Z,21.40
2019-02-26T06:44:49.033Z,19.93
2019-02-26T06:47:17.437Z,20.67
2019-02-26T06:49:48.543Z,21.87
2019-02-26T06:52:18.020Z,23.10
2019-02-26T06:54:50.539Z,18.13
2019-02-26T06:57:17.542Z,23.87
2019-02-26T06:59:46.170Z,23.23
2019-02-26T07:02:15.152Z,20.90
2019-02-26T07:04:43.793Z,25.93
2019-02-26T07:07:14.468Z,25.87
2019-02-26T07:09:43.922Z,27.27
2019-02-26T07:12:14.463Z,26.63
2019-02-26T07:14:43.066Z,24.00
2019-02-26T07:17:11.755Z,20.67
2019-02-26T07:19:40.826Z,19.17
2019-02-26T07:22:11.598Z,18.93
2019-02-26T07:24:44.540Z,22.10
2019-02-26T07:27:13.915Z,19.10
2019-02-26T07:29:44.901Z,17.30
2019-02-26T07:32:14.764Z,16.37
2019-02-26T07:34:45.255Z,17.37
2019-02-26T07:37:15.766Z,21.43
2019-02-26T07:39:46.714Z,16.57
2019-02-26T07:42:16.505Z,18.63
2019-02-26T07:44:45.170Z,19.83
2019-02-26T07:47:13.814Z,13.50
2019-02-26T07:49:42.698Z,15.60
2019-02-26T07:52:11.677Z,15.20
2019-02-26T07:54:42.211Z,14.97
2019-02-26T07:57:10.673Z,13.37
2019-02-26T07:59:40.419Z,16.40
2019-02-26T08:02:11.353Z,12.30
2019-02-26T08:04:41.778Z,13.50
2019-02-26T08:07:10.414Z,11.77
2019-02-26T08:09:39.047Z,11.47
2019-02-26T08:12:10.781Z,12.60
2019-02-26T08:14:40.189Z,16.00
2019-02-26T08:17:08.421Z,17.37
2019-02-26T08:19:39.287Z,15.40
2019-02-26T08:22:07.750Z,15.37
2019-02-26T08:24:36.381Z,12.00
2019-02-26T08:27:06.044Z,10.80
2019-02-26T08:29:36.179Z,10.90
2019-02-26T08:32:05.170Z,9.93
2019-02-26T08:34:33.793Z,10.97
2019-02-26T08:37:02.885Z,9.60
2019-02-26T08:39:31.534Z,14.30
2019-02-26T08:42:05.230Z,10.03
2019-02-26T08:44:33.886Z,11.53
2019-02-26T08:47:06.164Z,10.53
2019-02-26T08:49:35.137Z,11.13
2019-02-26T08:52:03.583Z,14.60
2019-02-26T08:54:33.320Z,13.07
2019-02-26T08:57:02.822Z,12.13
2019-02-26T08:59:31.451Z,15.70
2019-02-26T09:02:00.075Z,14.07
2019-02-26T09:04:28.725Z,13.87
2019-02-26T09:06:59.422Z,14.93
2019-02-26T09:09:28.247Z,16.77
2019-02-26T09:12:00.573Z,14.23
2019-02-26T09:14:32.031Z,16.00
2019-02-26T09:16:59.623Z,14.47
2019-02-26T09:19:30.327Z,16.90
2019-02-26T09:21:59.541Z,18.63
2019-02-26T09:24:28.174Z,19.40
2019-02-26T09:26:57.571Z,16.03
2019-02-26T09:29:27.183Z,16.53
2019-02-26T09:31:55.849Z,17.93
2019-02-26T09:34:26.672Z,19.67
2019-02-26T09:36:56.372Z,17.67
2019-02-26T09:39:27.510Z,16.57
2019-02-26T09:41:57.572Z,13.00
2019-02-26T09:44:28.646Z,15.30
2019-02-26T09:46:58.316Z,12.53
2019-02-26T09:49:28.501Z,15.98
2019-02-26T09:51:59.149Z,13.48
2019-02-26T09:54:28.249Z,16.57
2019-02-26T09:56:56.869Z,11.08
2019-02-26T09:59:26.435Z,13.90
2019-02-26T10:01:56.927Z,13.25
2019-02-26T10:04:28.783Z,12.58
2019-02-26T10:06:57.563Z,11.25
2019-02-26T10:09:26.186Z,11.53
2019-02-26T10:11:54.835Z,12.40
2019-02-26T10:14:23.462Z,15.98
2019-02-26T10:16:54.322Z,10.95
2019-02-26T10:19:22.457Z,14.45
2019-02-26T10:21:51.081Z,13.13
2019-02-26T10:24:23.021Z,12.40
2019-02-26T10:26:50.086Z,11.53
2019-02-26T10:29:18.801Z,9.85
2019-02-26T10:31:47.441Z,9.75
2019-02-26T10:34:19.086Z,13.65
2019-02-26T10:36:49.313Z,10.58
2019-02-26T10:39:18.610Z,11.03
2019-02-26T10:41:47.773Z,11.48
2019-02-26T10:44:16.424Z,9.95
2019-02-26T10:46:45.042Z,15.53
2019-02-26T10:49:13.774Z,11.43
2019-02-26T10:51:43.105Z,11.70
2019-02-26T10:54:16.023Z,11.12
2019-02-26T10:56:44.721Z,10.72
2019-02-26T10:59:15.808Z,11.85
2019-02-26T11:01:43.134Z,10.10
2019-02-26T11:04:11.767Z,8.50
2019-02-26T11:06:43.789Z,12.33
2019-02-26T11:09:11.144Z,9.98
2019-02-26T11:11:42.220Z,9.05
2019-02-26T11:14:13.604Z,11.10
2019-02-26T11:16:41.121Z,9.05
2019-02-26T11:19:12.194Z,10.63
2019-02-26T11:21:40.124Z,11.12
2019-02-26T11:24:11.107Z,10.43
2019-02-26T11:26:40.953Z,7.55
2019-02-26T11:29:09.491Z,7.90
2019-02-26T11:31:39.739Z,8.85
2019-02-26T11:34:10.965Z,10.38
2019-02-26T11:36:40.895Z,10.10
2019-02-26T11:39:11.937Z,10.23
2019-02-26T11:41:39.838Z,8.70
2019-02-26T11:44:12.557Z,8.43
2019-02-26T11:46:38.838Z,9.93
2019-02-26T11:49:09.354Z,10.53
2019-02-26T11:51:41.844Z,5.58
2019-02-26T11:54:10.716Z,7.50
2019-02-26T11:56:42.543Z,8.73
2019-02-26T11:59:11.732Z,5.40
2019-02-26T12:01:42.003Z,7.95
2019-02-26T12:04:11.366Z,6.30
2019-02-26T12:06:40.652Z,6.75
2019-02-26T12:09:11.461Z,8.50
2019-02-26T12:11:39.655Z,7.78
2019-02-26T12:14:10.739Z,9.10
2019-02-26T12:16:38.957Z,8.28
2019-02-26T12:19:08.698Z,8.08
2019-02-26T12:21:38.374Z,7.67
2019-02-26T12:24:09.097Z,8.20
2019-02-26T12:26:37.609Z,9.03
2019-02-26T12:29:06.262Z,8.23
2019-02-26T12:31:36.930Z,10.65
2019-02-26T12:34:05.299Z,8.30
2019-02-26T12:36:35.518Z,10.58
2019-02-26T12:39:05.783Z,10.85
2019-02-26T12:41:36.584Z,9.68
2019-02-26T12:44:10.656Z,9.03
2019-02-26T12:46:35.170Z,9.95
2019-02-26T12:49:05.744Z,5.97
2019-02-26T12:51:35.475Z,5.87
2019-02-26T12:54:06.394Z,4.30
2019-02-26T12:56:37.369Z,11.03
2019-02-26T12:59:07.161Z,4.92
2019-02-26T13:01:36.209Z,3.62
2019-02-26T13:04:06.157Z,4.25
2019-02-26T13:06:38.294Z,6.22
2019-02-26T13:09:06.625Z,4.12
2019-02-26T13:11:35.562Z,4.28
2019-02-26T13:14:04.198Z,3.45
2019-02-26T13:16:33.099Z,4.85
2019-02-26T13:19:04.649Z,5.62
2019-02-26T13:21:32.420Z,5.92
2019-02-26T13:24:11.507Z,5.97
2019-02-26T13:26:36.058Z,4.67
2019-02-26T13:29:01.778Z,4.40
2019-02-26T13:31:34.315Z,6.05
2019-02-26T13:34:00.876Z,3.98
2019-02-26T13:36:29.553Z,7.28
2019-02-26T13:38:58.191Z,5.67
2019-02-26T13:41:30.050Z,4.97
2019-02-26T13:43:57.185Z,4.03
2019-02-26T13:46:26.147Z,3.83
2019-02-26T13:48:54.790Z,4.22
2019-02-26T13:51:23.424Z,3.87
2019-02-26T13:53:52.051Z,5.25
2019-02-26T13:56:20.701Z,3.52
2019-02-26T13:58:49.332Z,3.72
2019-02-26T14:01:18.037Z,5.05
2019-02-26T14:03:46.682Z,6.55
2019-02-26T14:06:15.337Z,3.62
2019-02-26T14:08:43.954Z,2.60
2019-02-26T14:11:12.688Z,3.92
2019-02-26T14:13:41.318Z,5.67
2019-02-26T14:16:09.946Z,2.05
2019-02-26T14:18:38.593Z,3.83
2019-02-26T14:21:07.244Z,5.55
2019-02-26T14:23:35.922Z,3.47
2019-02-26T14:26:04.614Z,2.55
2019-02-26T14:28:33.239Z,1.77
2019-02-26T14:31:01.866Z,2.65
2019-02-26T14:33:30.530Z,1.67
2019-02-26T14:35:59.169Z,4.22
2019-02-26T14:38:27.799Z,2.85
2019-02-26T14:40:56.490Z,3.60
2019-02-26T14:43:25.113Z,3.83
2019-02-26T14:45:53.777Z,3.97
2019-02-26T14:48:22.776Z,5.57
2019-02-26T14:50:51.399Z,4.27
2019-02-26T14:53:20.025Z,4.80
2019-02-26T14:55:48.751Z,5.23
2019-02-26T14:58:17.452Z,4.13
2019-02-26T15:00:54.959Z,4.57
2019-02-26T15:03:16.726Z,4.77
2019-02-26T15:05:45.349Z,6.23
2019-02-26T15:08:13.978Z,8.33
2019-02-26T15:10:42.802Z,4.70
2019-02-26T15:13:11.428Z,6.13
2019-02-26T15:15:40.051Z,5.37
2019-02-26T15:18:09.274Z,6.90
2019-02-26T15:20:37.891Z,6.17
2019-02-26T15:23:06.798Z,5.67
2019-02-26T15:25:35.707Z,4.20
2019-02-26T15:28:05.532Z,5.03
2019-02-26T15:30:34.418Z,6.03
2019-02-26T15:33:10.721Z,5.17
2019-02-26T15:35:33.422Z,3.93
2019-02-26T15:38:02.146Z,6.77
2019-02-26T15:40:30.802Z,5.00
2019-02-26T15:42:59.426Z,7.50
2019-02-26T15:45:29.021Z,5.83
2019-02-26T15:47:58.273Z,7.30
2019-02-26T15:50:26.899Z,5.63
2019-02-26T15:52:55.517Z,7.80
2019-02-26T15:55:25.887Z,9.10
2019-02-26T15:57:54.560Z,8.10
2019-02-26T16:00:23.458Z,5.03
2019-02-26T16:02:52.118Z,9.67
2019-02-26T16:05:22.089Z,6.10
2019-02-26T16:07:50.713Z,8.17
2019-02-26T16:10:22.243Z,6.03
2019-02-26T16:12:50.163Z,10.47
2019-02-26T16:15:18.860Z,8.57
2019-02-26T16:17:47.506Z,6.40
2019-02-26T16:20:17.688Z,7.43
2019-02-26T16:22:46.590Z,7.80
2019-02-26T16:25:15.251Z,8.07
2019-02-26T16:27:44.215Z,6.80
2019-02-26T16:30:15.810Z,6.07
2019-02-26T16:32:44.554Z,6.33
2019-02-26T16:35:13.176Z,7.03
2019-02-26T16:37:42.178Z,7.03
2019-02-26T16:40:10.969Z,7.17
2019-02-26T16:42:39.617Z,9.40
2019-02-26T16:45:11.602Z,9.40
2019-02-26T16:47:40.277Z,12.00
2019-02-26T16:50:13.178Z,13.53
2019-02-26T16:52:41.406Z,9.30
2019-02-26T16:55:13.466Z,8.10
2019-02-26T16:57:40.538Z,13.17
2019-02-26T17:00:12.863Z,7.63
2019-02-26T17:02:41.746Z,9.33
2019-02-26T17:05:14.275Z,11.37
2019-02-26T17:07:41.791Z,10.50
2019-02-26T17:10:11.997Z,7.67
2019-02-26T17:12:40.622Z,10.47
2019-02-26T17:15:12.902Z,9.23
2019-02-26T17:17:41.710Z,11.57
2019-02-26T17:20:10.378Z,7.57
2019-02-26T17:22:41.039Z,9.83
2019-02-26T17:25:10.385Z,7.60
2019-02-26T17:27:39.617Z,10.20
2019-02-26T17:30:09.661Z,11.63
2019-02-26T17:32:38.969Z,11.10
2019-02-26T17:35:08.185Z,12.00
2019-02-26T17:37:41.181Z,15.10
2019-02-26T17:40:09.033Z,13.13
2019-02-26T17:42:38.142Z,14.50
2019-02-26T17:45:08.728Z,14.97
2019-02-26T17:47:37.398Z,13.17
2019-02-26T17:50:09.650Z,15.17
2019-02-26T17:52:38.185Z,14.27
2019-02-26T17:55:09.315Z,16.17
2019-02-26T17:57:37.216Z,14.67
2019-02-26T18:00:07.796Z,14.47
2019-02-26T18:02:36.536Z,16.53
2019-02-26T18:05:05.512Z,12.47
2019-02-26T18:07:38.328Z,13.33
2019-02-26T18:10:06.153Z,12.23
2019-02-26T18:12:34.773Z,17.90
2019-02-26T18:15:03.484Z,14.50
2019-02-26T18:17:32.158Z,11.77
2019-02-26T18:20:00.792Z,11.43
2019-02-26T18:22:29.418Z,10.23
2019-02-26T18:24:58.078Z,12.87
2019-02-26T18:27:27.743Z,10.63
2019-02-26T18:29:57.061Z,12.07
2019-02-26T18:32:25.715Z,12.07
2019-02-26T18:34:54.362Z,12.27
2019-02-26T18:37:23.022Z,20.67
2019-02-26T18:39:54.377Z,15.57
2019-02-26T18:42:22.126Z,15.43
2019-02-26T18:44:51.898Z,14.50
2019-02-26T18:47:21.525Z,15.40
2019-02-26T18:49:50.157Z,14.93
2019-02-26T18:52:18.820Z,17.53
2019-02-26T18:54:47.502Z,18.67
2019-02-26T18:57:16.154Z,17.00
2019-02-26T18:59:44.811Z,17.40
2019-02-26T19:02:13.482Z,21.50
2019-02-26T19:04:42.339Z,19.10
2019-02-26T19:07:11.051Z,18.77
2019-02-26T19:09:39.705Z,15.20
2019-02-26T19:12:08.364Z,21.43
2019-02-26T19:14:41.831Z,23.47
2019-02-26T19:17:07.590Z,22.27
2019-02-26T19:19:36.287Z,16.03
2019-02-26T19:22:05.202Z,16.87
2019-02-26T19:24:35.858Z,21.20
2019-02-26T19:27:04.485Z,20.37
2019-02-26T19:29:33.254Z,17.90
2019-02-26T19:32:02.028Z,18.53
2019-02-26T19:34:30.772Z,17.63
2019-02-26T19:36:59.422Z,18.37
2019-02-26T19:39:28.632Z,18.90
2019-02-26T19:41:57.254Z,16.87
2019-02-26T19:44:26.167Z,16.53
2019-02-26T19:46:54.798Z,21.40
2019-02-26T19:49:23.450Z,14.83
2019-02-26T19:51:52.352Z,15.97
2019-02-26T19:54:21.021Z,18.97
2019-02-26T19:56:49.645Z,18.97
2019-02-26T19:59:21.437Z,14.87
2019-02-26T20:01:50.193Z,17.27
2019-02-26T20:04:18.839Z,13.03
2019-02-26T20:06:47.461Z,16.23
2019-02-26T20:09:16.636Z,16.17
2019-02-26T20:11:45.286Z,16.27
2019-02-26T20:14:14.796Z,15.87
2019-02-26T20:16:44.365Z,14.80
2019-02-26T20:19:13.001Z,18.97
2019-02-26T20:21:41.694Z,15.90
2019-02-26T20:24:10.351Z,18.83
2019-02-26T20:26:39.466Z,20.03
2019-02-26T20:29:08.391Z,15.00
2019-02-26T20:31:37.868Z,16.40
2019-02-26T20:34:07.335Z,21.90
2019-02-26T20:36:36.017Z,20.23
2019-02-26T20:39:07.821Z,20.80
2019-02-26T20:41:36.590Z,22.73
2019-02-26T20:44:05.285Z,16.67
2019-02-26T20:46:33.954Z,23.67
2019-02-26T20:49:02.577Z,25.17
2019-02-26T20:51:31.207Z,21.03
2019-02-26T20:53:59.905Z,21.83
2019-02-26T20:56:28.679Z,19.80
2019-02-26T20:58:58.906Z,18.70
2019-02-26T21:01:29.688Z,22.77
2019-02-26T21:03:57.924Z,20.87
2019-02-26T21:06:26.549Z,22.90
2019-02-26T21:08:55.210Z,22.87
2019-02-26T21:11:23.842Z,26.50
2019-02-26T21:13:52.469Z,20.60
2019-02-26T21:16:21.482Z,25.30
2019-02-26T21:18:50.289Z,21.63
2019-02-26T21:21:18.915Z,21.90
2019-02-26T21:23:47.850Z,21.73
2019-02-26T21:26:19.269Z,18.10
2019-02-26T21:28:47.139Z,19.00
2019-02-26T21:31:16.711Z,19.97
2019-02-26T21:33:46.166Z,19.40
2019-02-26T21:36:14.821Z,19.07
2019-02-26T21:38:43.505Z,23.57
2019-02-26T21:41:12.138Z,20.27
2019-02-26T21:43:40.750Z,19.53
2019-02-26T21:46:09.407Z,17.10
2019-02-26T21:48:38.140Z,18.47
2019-02-26T21:51:06.889Z,16.07
2019-02-26T21:53:35.704Z,19.87
2019-02-26T21:56:04.366Z,17.20
2019-02-26T21:58:33.313Z,15.90
2019-02-26T22:01:01.958Z,18.73
2019-02-26T22:03:30.574Z,18.03
2019-02-26T22:06:05.264Z,23.47
2019-02-26T22:08:29.915Z,16.10
2019-02-26T22:10:58.544Z,19.33
2019-02-26T22:13:29.393Z,20.23
2019-02-26T22:15:57.809Z,16.67
2019-02-26T22:18:31.182Z,16.07
2019-02-26T22:20:56.838Z,18.67
2019-02-26T22:23:25.484Z,15.77
2019-02-26T22:25:55.426Z,15.70
2019-02-26T22:28:25.882Z,16.10
2019-02-26T22:30:55.962Z,17.53
2019-02-26T22:33:25.143Z,18.77
2019-02-26T22:35:53.758Z,15.43
2019-02-26T22:38:22.419Z,18.90
2019-02-26T22:40:51.029Z,15.67
2019-02-26T22:43:19.982Z,19.00
2019-02-26T22:45:48.638Z,18.63
2019-02-26T22:48:17.301Z,20.67
2019-02-26T22:50:45.914Z,24.53
2019-02-26T22:53:14.569Z,20.77
2019-02-26T22:55:43.198Z,21.20
2019-02-26T22:58:11.822Z,20.47
